createdAt,value
2019-04-25T00:00:31.465Z,37.00
2019-04-25T00:03:01.232Z,36.90
2019-04-25T00:05:31.092Z,37.20
2019-04-25T00:08:01.440Z,37.20
2019-04-25T00:10:31.847Z,37.40
2019-04-25T00:13:01.655Z,37.00
2019-04-25T00:15:31.851Z,37.50
2019-04-25T00:18:02.247Z,37.50
2019-04-25T00:20:32.883Z,37.40
2019-04-25T00:23:03.122Z,37.60
2019-04-25T00:25:51.311Z,37.30
2019-04-25T00:28:21.603Z,37.70
2019-04-25T00:30:51.994Z,37.70
2019-04-25T00:33:21.561Z,38.00
2019-04-25T00:35:51.698Z,38.00
2019-04-25T00:38:22.116Z,38.10
2019-04-25T00:40:52.412Z,38.20
2019-04-25T00:43:21.514Z,38.30
2019-04-25T00:45:51.640Z,38.40
2019-04-25T00:48:22.216Z,38.70
2019-04-25T00:50:52.101Z,38.70
2019-04-25T00:53:21.442Z,38.70
2019-04-25T00:55:52.289Z,39.10
2019-04-25T00:58:21.957Z,39.50
2019-04-25T01:00:53.369Z,39.70
2019-04-25T01:03:32.999Z,39.50
2019-04-25T01:06:03.364Z,39.80
2019-04-25T01:08:32.130Z,39.80
2019-04-25T01:11:01.663Z,40.00
2019-04-25T01:13:32.095Z,40.80
2019-04-25T01:16:03.812Z,40.00
2019-04-25T01:18:31.486Z,40.20
2019-04-25T01:21:00.066Z,40.50
2019-04-25T01:23:28.678Z,40.50
2019-04-25T01:25:57.333Z,40.50
2019-04-25T01:28:26.718Z,40.50
2019-04-25T01:30:56.155Z,41.20
2019-04-25T01:33:26.541Z,40.20
2019-04-25T01:36:00.007Z,40.00
2019-04-25T01:38:33.590Z,39.90
2019-04-25T01:41:16.023Z,39.80
2019-04-25T01:43:48.348Z,39.90
2019-04-25T01:46:16.925Z,40.00
2019-04-25T01:48:45.671Z,39.90
2019-04-25T01:51:14.419Z,39.60
2019-04-25T01:53:44.109Z,39.80
2019-04-25T01:56:13.589Z,40.20
2019-04-25T01:58:43.784Z,40.30
2019-04-25T02:01:14.328Z,40.50
2019-04-25T02:03:44.252Z,40.50
2019-04-25T02:06:13.682Z,40.70
2019-04-25T02:08:43.896Z,40.80
2019-04-25T02:11:20.432Z,40.90
2019-04-25T02:13:49.223Z,41.00
2019-04-25T02:16:17.984Z,40.90
2019-04-25T02:18:46.662Z,41.50
2019-04-25T02:21:15.416Z,41.80
2019-04-25T02:23:44.297Z,42.20
2019-04-25T02:26:16.748Z,42.30
2019-04-25T02:28:43.745Z,42.70
2019-04-25T02:31:17.717Z,43.00
2019-04-25T02:33:44.253Z,42.90
2019-04-25T02:36:15.090Z,43.00
2019-04-25T02:38:44.267Z,42.90
2019-04-25T02:41:14.841Z,43.10
2019-04-25T02:43:45.080Z,43.40
2019-04-25T02:46:15.997Z,43.40
2019-04-25T02:49:07.121Z,43.60
2019-04-25T02:51:37.494Z,43.70
2019-04-25T02:54:08.065Z,43.60
2019-04-25T02:56:38.910Z,43.60
2019-04-25T02:59:08.901Z,43.70
2019-04-25T03:01:37.275Z,43.60
2019-04-25T03:04:10.648Z,43.40
2019-04-25T03:06:36.511Z,43.50
2019-04-25T03:09:09.778Z,43.90
2019-04-25T03:11:38.759Z,43.00
2019-04-25T03:14:10.000Z,43.00
2019-04-25T03:16:37.946Z,42.70
2019-04-25T03:19:09.384Z,42.70
2019-04-25T03:21:39.868Z,43.40
2019-04-25T03:24:12.781Z,42.30
2019-04-25T03:26:40.695Z,42.60
2019-04-25T03:29:09.530Z,42.60
2019-04-25T03:31:38.220Z,42.60
2019-04-25T03:34:11.379Z,42.50
2019-04-25T03:36:37.458Z,42.60
2019-04-25T03:39:08.684Z,42.50
2019-04-25T03:41:37.426Z,42.70
2019-04-25T03:44:06.512Z,43.00
2019-04-25T03:46:35.270Z,42.80
2019-04-25T03:49:05.031Z,42.60
2019-04-25T03:51:34.587Z,42.60
2019-04-25T03:54:04.742Z,42.60
2019-04-25T03:56:33.723Z,42.70
2019-04-25T03:59:04.829Z,42.70
2019-04-25T04:01:34.134Z,42.80
2019-04-25T04:04:05.776Z,43.00
2019-04-25T04:06:34.048Z,43.00
2019-04-25T04:09:05.520Z,43.00
2019-04-25T04:11:34.678Z,43.30
2019-04-25T04:14:04.914Z,43.20
2019-04-25T04:16:35.254Z,43.30
2019-04-25T04:19:05.712Z,43.30
2019-04-25T04:21:53.217Z,44.10
2019-04-25T04:24:25.564Z,44.20
2019-04-25T04:27:10.894Z,44.30
2019-04-25T04:29:40.806Z,44.50
2019-04-25T04:32:09.386Z,44.40
2019-04-25T04:34:38.062Z,44.70
2019-04-25T04:37:07.453Z,44.80
2019-04-25T04:39:36.204Z,44.80
2019-04-25T04:42:04.960Z,44.80
2019-04-25T04:44:34.351Z,45.10
2019-04-25T04:47:04.057Z,44.70
2019-04-25T04:49:34.163Z,44.60
2019-04-25T04:52:04.481Z,44.40
2019-04-25T04:54:34.417Z,44.30
2019-04-25T04:57:16.798Z,44.20
2019-04-25T04:59:34.066Z,44.10
2019-04-25T05:02:07.333Z,43.90
2019-04-25T05:04:55.832Z,43.50
2019-04-25T05:07:41.274Z,43.20
2019-04-25T05:10:10.593Z,42.90
2019-04-25T05:12:40.182Z,43.00
2019-04-25T05:15:09.734Z,43.20
2019-04-25T05:17:38.497Z,42.90
2019-04-25T05:20:07.630Z,42.80
2019-04-25T05:22:36.244Z,42.30
2019-04-25T05:25:06.601Z,41.90
2019-04-25T05:27:46.362Z,41.70
2019-04-25T05:30:08.506Z,41.40
2019-04-25T05:32:37.239Z,41.50
2019-04-25T05:35:06.963Z,41.60
2019-04-25T05:37:35.643Z,41.30
2019-04-25T05:40:06.181Z,41.60
2019-04-25T05:42:54.261Z,41.60
2019-04-25T05:45:30.814Z,42.00
2019-04-25T05:47:59.530Z,42.10
2019-04-25T05:50:28.314Z,41.70
2019-04-25T05:52:56.962Z,41.80
2019-04-25T05:55:26.414Z,42.80
2019-04-25T05:57:55.402Z,42.70
2019-04-25T06:00:25.042Z,42.90
2019-04-25T06:02:54.738Z,42.50
2019-04-25T06:05:25.941Z,43.10
2019-04-25T06:07:54.334Z,43.20
2019-04-25T06:10:36.653Z,43.10
2019-04-25T06:13:13.811Z,43.20
2019-04-25T06:15:44.404Z,43.00
2019-04-25T06:18:14.822Z,42.50
2019-04-25T06:20:44.297Z,41.90
2019-04-25T06:23:14.730Z,42.10
2019-04-25T06:25:43.959Z,40.90
2019-04-25T06:28:23.982Z,41.50
2019-04-25T06:30:54.123Z,41.20
2019-04-25T06:33:24.573Z,40.70
2019-04-25T06:35:54.783Z,39.70
2019-04-25T06:38:26.049Z,39.80
2019-04-25T06:40:53.653Z,40.10
2019-04-25T06:43:24.588Z,39.60
2019-04-25T06:46:13.938Z,40.10
2019-04-25T06:48:47.246Z,38.90
2019-04-25T06:51:15.941Z,34.20
2019-04-25T06:53:44.561Z,31.20
2019-04-25T06:56:13.775Z,31.50
2019-04-25T06:58:43.842Z,29.50
2019-04-25T07:01:13.517Z,29.10
2019-04-25T07:03:44.054Z,27.70
2019-04-25T07:06:14.518Z,28.00
2019-04-25T07:08:44.751Z,27.50
2019-04-25T07:11:13.981Z,26.90
2019-04-25T07:13:43.832Z,27.10
2019-04-25T07:16:13.412Z,26.60
2019-04-25T07:18:43.568Z,26.40
2019-04-25T07:21:14.079Z,26.70
2019-04-25T07:23:46.013Z,26.90
2019-04-25T07:26:15.906Z,26.70
2019-04-25T07:28:46.306Z,26.20
2019-04-25T07:31:33.549Z,26.10
2019-04-25T07:34:07.553Z,25.50
2019-04-25T07:36:37.217Z,25.50
2019-04-25T07:39:10.694Z,26.10
2019-04-25T07:41:39.444Z,26.10
2019-04-25T07:44:08.369Z,26.40
2019-04-25T07:46:39.525Z,26.70
2019-04-25T07:49:07.642Z,26.20
2019-04-25T07:51:36.720Z,26.10
2019-04-25T07:54:06.224Z,25.60
2019-04-25T07:56:36.447Z,25.90
2019-04-25T07:59:06.879Z,25.50
2019-04-25T08:01:37.471Z,25.80
2019-04-25T08:04:06.435Z,25.70
2019-04-25T08:06:35.753Z,25.80
2019-04-25T08:09:09.909Z,25.40
2019-04-25T08:11:38.718Z,24.70
2019-04-25T08:14:11.976Z,24.30
2019-04-25T08:16:45.358Z,23.30
2019-04-25T08:19:14.599Z,23.10
2019-04-25T08:21:43.986Z,24.50
2019-04-25T08:24:14.583Z,25.40
2019-04-25T08:26:43.697Z,25.10
2019-04-25T08:29:13.307Z,24.50
2019-04-25T08:31:43.888Z,23.20
2019-04-25T08:34:14.319Z,23.40
2019-04-25T08:36:44.373Z,23.40
2019-04-25T08:39:14.584Z,23.70
2019-04-25T08:41:45.348Z,24.10
2019-04-25T08:44:14.188Z,23.90
2019-04-25T08:46:44.227Z,24.30
2019-04-25T08:49:17.899Z,23.60
2019-04-25T08:51:48.246Z,21.10
2019-04-25T08:54:35.446Z,21.70
2019-04-25T08:57:05.703Z,21.50
2019-04-25T08:59:52.001Z,20.90
2019-04-25T09:02:23.537Z,21.80
2019-04-25T09:05:10.735Z,21.00
2019-04-25T09:07:39.640Z,21.20
2019-04-25T09:10:08.408Z,21.50
2019-04-25T09:12:37.773Z,21.50
2019-04-25T09:15:07.023Z,20.70
2019-04-25T09:17:36.858Z,21.20
2019-04-25T09:20:06.942Z,21.40
2019-04-25T09:22:37.359Z,21.20
2019-04-25T09:25:09.318Z,21.60
2019-04-25T09:27:39.695Z,21.60
2019-04-25T09:30:08.833Z,22.90
2019-04-25T09:32:38.341Z,20.90
2019-04-25T09:35:07.133Z,21.40
2019-04-25T09:37:36.661Z,21.00
2019-04-25T09:40:13.828Z,20.40
2019-04-25T09:42:44.754Z,20.40
2019-04-25T09:45:33.506Z,20.20
2019-04-25T09:48:06.700Z,20.40
2019-04-25T09:50:38.196Z,21.30
2019-04-25T09:53:07.826Z,21.90
2019-04-25T09:55:54.245Z,21.60
2019-04-25T09:58:44.623Z,22.00
2019-04-25T10:01:14.850Z,22.80
2019-04-25T10:03:44.803Z,22.40
2019-04-25T10:06:17.589Z,22.40
2019-04-25T10:08:47.417Z,22.80
2019-04-25T10:11:16.763Z,22.00
2019-04-25T10:13:48.410Z,21.40
2019-04-25T10:16:17.208Z,21.20
2019-04-25T10:18:45.966Z,21.10
2019-04-25T10:21:15.193Z,21.90
2019-04-25T10:23:45.375Z,21.80
2019-04-25T10:26:14.427Z,23.00
2019-04-25T10:28:44.045Z,23.30
2019-04-25T10:31:13.850Z,22.20
2019-04-25T10:33:45.172Z,21.90
2019-04-25T10:36:14.442Z,21.30
2019-04-25T10:38:46.306Z,21.70
2019-04-25T10:41:14.200Z,22.10
2019-04-25T10:43:44.004Z,23.00
2019-04-25T10:46:14.141Z,21.60
2019-04-25T10:48:44.008Z,21.00
2019-04-25T10:51:13.920Z,21.40
2019-04-25T10:53:45.458Z,22.10
2019-04-25T10:56:14.141Z,22.60
2019-04-25T10:58:44.474Z,22.90
2019-04-25T11:01:15.151Z,22.20
2019-04-25T11:03:45.550Z,22.90
2019-04-25T11:06:16.294Z,23.50
2019-04-25T11:08:45.287Z,23.40
2019-04-25T11:11:14.085Z,23.00
2019-04-25T11:13:44.310Z,22.40
2019-04-25T11:16:15.142Z,21.60
2019-04-25T11:18:45.053Z,21.00
2019-04-25T11:21:14.354Z,21.40
2019-04-25T11:23:46.262Z,22.00
2019-04-25T11:26:13.903Z,22.60
2019-04-25T11:28:45.323Z,23.70
2019-04-25T11:31:15.622Z,22.60
2019-04-25T11:33:44.295Z,23.40
2019-04-25T11:36:13.360Z,23.90
2019-04-25T11:38:43.668Z,24.80
2019-04-25T11:41:16.907Z,25.00
2019-04-25T11:43:46.411Z,25.10
2019-04-25T11:46:16.542Z,24.30
2019-04-25T11:48:46.299Z,24.10
2019-04-25T11:51:15.701Z,24.20
2019-04-25T11:53:45.974Z,24.30
2019-04-25T11:56:14.818Z,25.20
2019-04-25T11:58:45.644Z,25.70
2019-04-25T12:01:15.764Z,26.10
2019-04-25T12:03:46.632Z,26.50
2019-04-25T12:06:14.771Z,26.50
2019-04-25T12:08:43.843Z,26.40
2019-04-25T12:11:13.978Z,27.00
2019-04-25T12:13:45.576Z,26.70
2019-04-25T12:16:14.398Z,26.80
2019-04-25T12:18:44.776Z,27.00
2019-04-25T12:21:13.652Z,27.60
2019-04-25T12:23:45.038Z,27.20
2019-04-25T12:26:14.247Z,26.80
2019-04-25T12:28:43.003Z,27.00
2019-04-25T12:31:13.271Z,27.10
2019-04-25T12:33:43.419Z,27.70
2019-04-25T12:36:13.612Z,27.90
2019-04-25T12:38:43.868Z,27.20
2019-04-25T12:41:13.186Z,27.00
2019-04-25T12:43:43.908Z,27.00
2019-04-25T12:46:22.816Z,27.30
2019-04-25T12:48:51.719Z,27.50
2019-04-25T12:51:20.541Z,27.40
2019-04-25T12:53:49.156Z,27.40
2019-04-25T12:56:20.248Z,27.00
2019-04-25T12:58:48.184Z,27.30
2019-04-25T13:01:16.902Z,27.50
2019-04-25T13:03:45.549Z,27.80
2019-04-25T13:06:15.807Z,27.30
2019-04-25T13:08:44.515Z,27.10
2019-04-25T13:11:13.957Z,27.30
2019-04-25T13:13:43.617Z,27.90
2019-04-25T13:16:13.157Z,27.70
2019-04-25T13:18:41.795Z,27.60
2019-04-25T13:21:10.544Z,27.50
2019-04-25T13:23:39.218Z,27.50
2019-04-25T13:26:07.958Z,27.50
2019-04-25T13:28:44.299Z,27.60
2019-04-25T13:31:15.234Z,27.30
2019-04-25T13:34:01.796Z,27.80
2019-04-25T13:36:32.918Z,28.10
2019-04-25T13:39:02.237Z,27.90
2019-04-25T13:41:31.269Z,27.50
2019-04-25T13:44:00.896Z,27.70
2019-04-25T13:46:29.765Z,28.40
2019-04-25T13:48:58.415Z,27.90
2019-04-25T13:51:27.116Z,28.20
2019-04-25T13:53:55.701Z,28.80
2019-04-25T13:56:26.197Z,29.00
2019-04-25T13:58:54.966Z,28.90
2019-04-25T14:01:24.691Z,29.40
2019-04-25T14:03:54.610Z,28.90
2019-04-25T14:06:23.987Z,28.80
2019-04-25T14:08:53.385Z,28.70
2019-04-25T14:11:23.985Z,29.00
2019-04-25T14:13:53.069Z,29.20
2019-04-25T14:16:25.361Z,29.80
2019-04-25T14:18:55.526Z,29.80
2019-04-25T14:21:25.117Z,30.00
2019-04-25T14:23:54.661Z,30.00
2019-04-25T14:26:23.443Z,29.90
2019-04-25T14:28:52.115Z,30.00
2019-04-25T14:31:33.595Z,29.60
2019-04-25T14:33:51.738Z,28.70
2019-04-25T14:36:22.014Z,29.00
2019-04-25T14:38:51.091Z,29.30
2019-04-25T14:41:19.790Z,29.80
2019-04-25T14:43:48.533Z,29.80
2019-04-25T14:46:17.341Z,29.70
2019-04-25T14:48:46.061Z,29.80
2019-04-25T14:51:14.759Z,30.50
2019-04-25T14:53:43.424Z,30.30
2019-04-25T14:56:19.779Z,30.00
2019-04-25T14:58:48.366Z,30.20
2019-04-25T15:01:18.796Z,30.40
2019-04-25T15:03:47.549Z,30.30
2019-04-25T15:06:16.304Z,30.80
2019-04-25T15:08:45.017Z,30.50
2019-04-25T15:11:13.774Z,31.00
2019-04-25T15:13:42.506Z,31.30
2019-04-25T15:16:11.178Z,32.10
2019-04-25T15:18:46.528Z,31.40
2019-04-25T15:21:10.101Z,31.50
2019-04-25T15:23:38.783Z,31.60
2019-04-25T15:26:08.058Z,31.70
2019-04-25T15:28:36.691Z,31.90
2019-04-25T15:31:05.464Z,31.60
2019-04-25T15:33:34.182Z,31.30
2019-04-25T15:36:13.115Z,31.40
2019-04-25T15:38:49.058Z,31.60
2019-04-25T15:41:37.516Z,31.80
2019-04-25T15:44:23.218Z,32.50
2019-04-25T15:46:53.597Z,32.90
2019-04-25T15:49:22.177Z,33.20
2019-04-25T15:51:50.769Z,33.00
2019-04-25T15:54:19.438Z,33.20
2019-04-25T15:56:48.110Z,33.30
2019-04-25T15:59:16.906Z,33.30
2019-04-25T16:01:45.550Z,33.20
2019-04-25T16:04:14.326Z,33.50
2019-04-25T16:06:42.986Z,33.60
2019-04-25T16:09:11.870Z,33.30
2019-04-25T16:11:40.469Z,33.60
2019-04-25T16:14:09.152Z,33.50
2019-04-25T16:16:38.353Z,33.80
2019-04-25T16:19:07.545Z,33.90
2019-04-25T16:21:36.398Z,34.00
2019-04-25T16:24:05.244Z,34.00
2019-04-25T16:26:33.949Z,34.00
2019-04-25T16:29:02.580Z,34.30
2019-04-25T16:31:32.280Z,34.60
2019-04-25T16:34:01.094Z,34.90
2019-04-25T16:36:30.745Z,35.20
2019-04-25T16:38:59.593Z,35.10
2019-04-25T16:41:28.651Z,35.40
2019-04-25T16:44:04.819Z,35.30
2019-04-25T16:46:34.398Z,35.70
2019-04-25T16:49:02.990Z,35.70
2019-04-25T16:51:32.789Z,35.90
2019-04-25T16:54:01.743Z,36.10
2019-04-25T16:56:30.604Z,36.10
2019-04-25T16:58:59.377Z,36.20
2019-04-25T17:01:28.074Z,36.60
2019-04-25T17:03:56.782Z,36.40
2019-04-25T17:06:25.589Z,36.30
2019-04-25T17:08:54.268Z,36.30
2019-04-25T17:11:22.838Z,36.30
2019-04-25T17:13:53.276Z,36.40
2019-04-25T17:16:39.842Z,36.60
2019-04-25T17:19:10.206Z,36.70
2019-04-25T17:21:39.313Z,37.00
2019-04-25T17:24:08.153Z,37.30
2019-04-25T17:26:36.890Z,37.40
2019-04-25T17:29:07.489Z,37.60
2019-04-25T17:31:49.731Z,38.30
2019-04-25T17:34:31.986Z,37.90
2019-04-25T17:37:02.370Z,38.10
2019-04-25T17:39:35.773Z,38.00
2019-04-25T17:42:04.448Z,38.10
2019-04-25T17:44:34.175Z,38.50
2019-04-25T17:47:06.577Z,38.60
2019-04-25T17:49:34.152Z,39.50
2019-04-25T17:52:02.993Z,39.40
2019-04-25T17:54:32.766Z,39.60
2019-04-25T17:57:01.498Z,39.90
2019-04-25T17:59:30.387Z,40.20
2019-04-25T18:01:59.108Z,40.50
2019-04-25T18:04:27.937Z,40.40
2019-04-25T18:06:56.696Z,40.60
2019-04-25T18:09:25.460Z,40.80
2019-04-25T18:11:54.264Z,41.10
2019-04-25T18:14:22.926Z,41.00
2019-04-25T18:16:51.704Z,41.40
2019-04-25T18:19:21.973Z,41.50
2019-04-25T18:21:50.687Z,41.70
2019-04-25T18:24:20.919Z,41.50
2019-04-25T18:26:57.012Z,41.50
2019-04-25T18:29:28.193Z,41.60
2019-04-25T18:31:56.847Z,41.70
2019-04-25T18:34:27.158Z,41.70
2019-04-25T18:37:12.514Z,42.00
2019-04-25T18:39:42.758Z,41.90
2019-04-25T18:42:15.860Z,42.10
2019-04-25T18:44:44.486Z,42.20
2019-04-25T18:47:13.050Z,42.20
2019-04-25T18:49:43.467Z,42.00
2019-04-25T18:52:13.705Z,42.30
2019-04-25T18:54:47.419Z,42.40
2019-04-25T18:57:20.798Z,42.20
2019-04-25T19:00:00.205Z,42.40
2019-04-25T19:02:37.524Z,42.50
2019-04-25T19:05:18.065Z,42.60
2019-04-25T19:07:47.416Z,42.80
2019-04-25T19:10:16.270Z,42.80
2019-04-25T19:12:45.158Z,42.60
2019-04-25T19:15:14.295Z,43.00
2019-04-25T19:17:43.275Z,42.90
2019-04-25T19:20:12.473Z,43.20
2019-04-25T19:22:41.531Z,43.40
2019-04-25T19:25:10.473Z,43.10
2019-04-25T19:27:39.711Z,43.10
2019-04-25T19:30:11.641Z,43.30
2019-04-25T19:32:40.634Z,43.10
2019-04-25T19:35:10.670Z,43.40
2019-04-25T19:37:39.509Z,43.50
2019-04-25T19:40:11.089Z,43.70
2019-04-25T19:42:44.531Z,43.90
2019-04-25T19:45:13.950Z,44.40
2019-04-25T19:47:42.987Z,44.90
2019-04-25T19:50:11.914Z,45.20
2019-04-25T19:52:41.370Z,45.40
2019-04-25T19:55:10.817Z,45.80
2019-04-25T19:57:39.441Z,46.00
2019-04-25T20:00:08.339Z,46.00
2019-04-25T20:02:38.652Z,46.20
2019-04-25T20:05:09.120Z,46.70
2019-04-25T20:07:39.423Z,46.70
2019-04-25T20:10:21.956Z,46.80
2019-04-25T20:12:53.321Z,47.00
2019-04-25T20:15:22.154Z,47.20
2019-04-25T20:17:51.882Z,47.10
2019-04-25T20:20:20.801Z,47.40
2019-04-25T20:22:50.260Z,46.90
2019-04-25T20:25:19.085Z,46.80
2019-04-25T20:27:48.532Z,46.90
2019-04-25T20:30:17.579Z,46.90
2019-04-25T20:32:47.204Z,47.00
2019-04-25T20:35:16.005Z,47.20
2019-04-25T20:37:44.951Z,47.20
2019-04-25T20:40:14.594Z,47.20
2019-04-25T20:42:43.481Z,47.30
2019-04-25T20:45:12.435Z,47.30
2019-04-25T20:47:41.091Z,47.50
2019-04-25T20:50:11.391Z,47.70
2019-04-25T20:52:40.062Z,47.90
2019-04-25T20:55:08.975Z,48.10
2019-04-25T20:57:37.584Z,47.90
2019-04-25T21:00:07.827Z,47.40
2019-04-25T21:02:36.559Z,47.70
2019-04-25T21:05:05.738Z,47.40
2019-04-25T21:07:34.306Z,47.50
2019-04-25T21:10:03.139Z,47.60
2019-04-25T21:12:31.733Z,47.30
2019-04-25T21:15:02.021Z,48.10
2019-04-25T21:17:38.199Z,47.60
2019-04-25T21:20:08.680Z,47.80
2019-04-25T21:22:37.339Z,47.90
2019-04-25T21:25:06.485Z,47.70
2019-04-25T21:27:35.202Z,47.60
2019-04-25T21:30:05.810Z,48.10
2019-04-25T21:32:36.023Z,48.60
2019-04-25T21:35:06.049Z,48.40
2019-04-25T21:37:34.682Z,49.20
2019-04-25T21:40:05.956Z,49.00
2019-04-25T21:42:48.492Z,48.80
2019-04-25T21:45:17.578Z,48.60
2019-04-25T21:47:46.705Z,48.10
2019-04-25T21:50:15.927Z,48.40
2019-04-25T21:52:44.739Z,48.80
2019-04-25T21:55:14.019Z,49.20
2019-04-25T21:57:42.744Z,49.50
2019-04-25T22:00:14.829Z,49.50
2019-04-25T22:02:43.893Z,50.70
2019-04-25T22:05:13.039Z,49.70
2019-04-25T22:07:42.177Z,49.80
2019-04-25T22:10:11.878Z,50.10
2019-04-25T22:12:40.446Z,49.90
2019-04-25T22:15:11.902Z,50.30
2019-04-25T22:17:40.552Z,50.30
2019-04-25T22:20:09.470Z,51.10
2019-04-25T22:22:38.475Z,51.10
2019-04-25T22:25:07.353Z,51.30
2019-04-25T22:27:37.017Z,51.40
2019-04-25T22:30:08.972Z,51.70
2019-04-25T22:32:42.390Z,52.00
2019-04-25T22:35:27.790Z,52.30
2019-04-25T22:37:56.418Z,52.50
2019-04-25T22:40:25.098Z,53.00
2019-04-25T22:42:53.790Z,54.00
2019-04-25T22:45:22.457Z,53.30
2019-04-25T22:47:51.241Z,52.20
2019-04-25T22:50:20.215Z,52.60
2019-04-25T22:52:48.822Z,52.80
2019-04-25T22:55:17.438Z,52.80
2019-04-25T22:57:46.575Z,51.70
2019-04-25T23:00:19.951Z,51.20
2019-04-25T23:02:56.675Z,51.50
2019-04-25T23:05:27.001Z,50.60
2019-04-25T23:07:55.861Z,51.00
2019-04-25T23:10:24.857Z,50.60
2019-04-25T23:12:53.454Z,50.40
2019-04-25T23:15:22.134Z,49.90
2019-04-25T23:17:51.372Z,50.10
2019-04-25T23:20:20.288Z,50.20
2019-04-25T23:22:48.966Z,50.30
2019-04-25T23:25:19.525Z,51.10
2019-04-25T23:28:02.106Z,51.20
2019-04-25T23:30:32.783Z,51.40
2019-04-25T23:33:01.463Z,51.50
2019-04-25T23:35:31.960Z,51.30
2019-04-25T23:38:00.351Z,51.60
2019-04-25T23:40:28.947Z,51.70
2019-04-25T23:42:57.851Z,51.80
2019-04-25T23:45:26.409Z,51.90
2019-04-25T23:47:55.063Z,51.80
2019-04-25T23:50:23.943Z,51.90
2019-04-25T23:52:52.532Z,51.80
2019-04-25T23:55:21.616Z,51.60
2019-04-25T23:57:50.258Z,51.60
